Airfield :
LOGIN :

Register | Disclaimer

   EN    FR    IT 

 










Legend :    VFR   Marginal VFR   IFR   Intensive IFR   Very Intensive IFR
Visi :
Ceiling :
>= 8 km
>= 3000ft
5 to 8 km
1000 to 3000 ft
1500m to 5 km
500 to 1000 ft
800 to 1500m
200 to 500 ft
< 800m
< 200 ft
Symbols :   Thunderstorms  Fog  Heavy snow  Heavy precipitations  Wind > 20 kt
SIGMETs :     Misc.  Thunderstorms  Icing  Turbulence  Mountain Waves  Volcanic Ashes






- Airport Elevation : 784 ft
- IATA code : TZL


LQTZ - Tuzla

CURRENT METAR :
  • 290530Z 14004KT 110V170 9999 FEW018 OVC035 12/12 Q1011

EXPIRED METARs :
  • 290500Z 12003KT 090V170 9999 FEW018 OVC035 12/12 Q1011
  • 290430Z VRB02KT 9999 FEW020 OVC035 11/11 Q1012
  • 290400Z VRB02KT 9999 FEW020 BKN035 11/11 Q1012
  • 290330Z VRB02KT 9999 FEW020 BKN035 11/11 Q1012
  • 290300Z VRB02KT 9999 FEW020 BKN035 11/11 Q1012

TAF TAF LQTZ
Valid from the 29 at 06:00 until the 30 at 06:00 UTC


290500Z 2906/3006 06008KT 9999 BKN035 TX19/2913Z TN09/3003Z
PROB40
TEMPO 2920/3006 3000 -RA BR BKN010 BKN025



MET'MAP, your aeronautical weather chart ! - Copyright ORBIFLY December 2007 - Disclaimer

ORBIFLY MET'MAP TEAM :

Programming & Development : Alexandra Zaïnal
Original concept : Baudouin d'Aumeries
Technical & hardware support : Manuel Goepfert
Assistance : Marc-Olivier Méhu

Contact : metmap@orbifly.com




SOURCES & CREDITS :

   NOAA